Lavan Island, Lavan Island Airport (OIBV)

NameLavan Island Airport
CityLavan Island
CountryIran
ICAOOIBV
IATALVP
Altitude23 m
CoordinatesGoogle Map
Live Air TrafficLiveATC.net
METAROIBV 220700Z 00000KT 8000 SCT030 OVC090 20/13 Q1020
2019-02-22 07:00:00 Wind: North (0°) 0 m/s - Visibility: 8000 m - Temperature: 20 °C - Dew point: 13 °C - Humidity: 64.2% - Pressure: 1020 hPa
Statistics

The table below shows the detailed information of all flights to/from Lavan Island, Lavan Island Airport (OIBV).